createdAt,value
2023-05-24T00:02:08.904Z,10.35
2023-05-24T00:04:35.569Z,10.48
2023-05-24T00:07:02.161Z,10.40
2023-05-24T00:09:29.841Z,10.33
2023-05-24T00:11:56.524Z,10.31
2023-05-24T00:14:23.378Z,10.26
2023-05-24T00:16:49.970Z,10.25
2023-05-24T00:19:16.529Z,10.19
2023-05-24T00:21:43.129Z,10.18
2023-05-24T00:24:09.728Z,10.18
2023-05-24T00:26:36.233Z,10.15
2023-05-24T00:29:02.857Z,10.16
2023-05-24T00:31:29.472Z,10.13
2023-05-24T00:33:56.043Z,10.19
2023-05-24T00:36:23.091Z,10.17
2023-05-24T00:38:49.798Z,10.19
2023-05-24T00:41:16.671Z,10.15
2023-05-24T00:43:43.278Z,10.14
2023-05-24T00:46:18.327Z,10.20
2023-05-24T00:48:45.044Z,10.16
2023-05-24T00:51:12.336Z,10.16
2023-05-24T00:53:38.971Z,10.20
2023-05-24T00:56:05.680Z,10.19
2023-05-24T00:58:32.378Z,10.21
2023-05-24T01:00:59.379Z,10.27
2023-05-24T01:03:26.326Z,10.24
2023-05-24T01:05:52.980Z,10.22
2023-05-24T01:08:42.788Z,10.21
2023-05-24T01:11:16.538Z,10.20
2023-05-24T01:14:03.900Z,10.24
2023-05-24T01:16:37.084Z,10.25
2023-05-24T01:19:10.880Z,10.24
2023-05-24T01:21:49.366Z,10.28
2023-05-24T01:24:25.933Z,10.26
2023-05-24T01:27:04.583Z,10.35
2023-05-24T01:29:31.394Z,10.24
2023-05-24T01:31:58.017Z,10.29
2023-05-24T01:34:27.692Z,10.24
2023-05-24T01:36:54.093Z,10.23
2023-05-24T01:39:20.860Z,10.18
2023-05-24T01:42:11.131Z,10.15
2023-05-24T01:44:44.877Z,10.11
2023-05-24T01:47:34.611Z,10.18
2023-05-24T01:50:35.705Z,10.20
2023-05-24T01:53:07.424Z,10.16
2023-05-24T01:55:34.487Z,10.16
2023-05-24T01:58:02.884Z,10.15
2023-05-24T02:00:29.474Z,10.16
2023-05-24T02:02:56.375Z,10.21
2023-05-24T02:05:23.020Z,10.24
2023-05-24T02:07:49.607Z,10.21
2023-05-24T02:10:16.177Z,10.23
2023-05-24T02:12:42.744Z,10.25
2023-05-24T02:15:09.932Z,10.24
2023-05-24T02:17:36.561Z,10.15
2023-05-24T02:20:03.657Z,10.29
2023-05-24T02:22:30.276Z,10.34
2023-05-24T02:24:56.890Z,10.34
2023-05-24T02:27:23.480Z,10.38
2023-05-24T02:29:50.080Z,10.38
2023-05-24T02:32:16.621Z,10.33
2023-05-24T02:34:43.199Z,10.35
2023-05-24T02:37:10.079Z,10.32
2023-05-24T02:39:36.617Z,10.34
2023-05-24T02:42:03.197Z,10.32
2023-05-24T02:44:29.783Z,10.33
2023-05-24T02:46:56.314Z,10.30
2023-05-24T02:49:22.954Z,10.40
2023-05-24T02:51:49.545Z,10.32
2023-05-24T02:54:16.110Z,10.31
2023-05-24T02:56:42.672Z,10.30
2023-05-24T02:59:09.216Z,10.33
2023-05-24T03:01:35.881Z,10.31
2023-05-24T03:04:02.682Z,10.31
2023-05-24T03:06:29.309Z,10.38
2023-05-24T03:08:55.896Z,10.33
2023-05-24T03:11:22.574Z,10.26
2023-05-24T03:13:49.318Z,10.31
2023-05-24T03:16:15.973Z,10.35
2023-05-24T03:18:42.695Z,10.38
2023-05-24T03:21:09.293Z,10.37
2023-05-24T03:23:35.916Z,10.38
2023-05-24T03:26:02.513Z,10.45
2023-05-24T03:28:29.069Z,10.48
2023-05-24T03:30:55.701Z,10.54
2023-05-24T03:33:22.221Z,10.47
2023-05-24T03:35:48.824Z,10.45
2023-05-24T03:38:15.443Z,10.43
2023-05-24T03:40:42.285Z,10.37
2023-05-24T03:43:09.054Z,10.36
2023-05-24T03:45:39.697Z,10.37
2023-05-24T03:48:06.939Z,10.39
2023-05-24T03:50:33.520Z,10.40
2023-05-24T03:53:00.157Z,10.40
2023-05-24T03:55:26.828Z,10.38
2023-05-24T03:57:53.440Z,10.39
2023-05-24T04:00:20.141Z,10.42
2023-05-24T04:02:46.798Z,10.32
2023-05-24T04:05:14.072Z,10.47
2023-05-24T04:07:40.770Z,10.45
2023-05-24T04:10:07.746Z,10.43
2023-05-24T04:12:34.523Z,10.44
2023-05-24T04:15:01.212Z,10.44
2023-05-24T04:17:28.130Z,10.45
2023-05-24T04:19:54.952Z,10.41
2023-05-24T04:22:22.700Z,10.51
2023-05-24T04:24:50.967Z,10.35
2023-05-24T04:27:17.551Z,10.47
2023-05-24T04:29:44.874Z,10.45
2023-05-24T04:32:11.561Z,10.48
2023-05-24T04:34:38.158Z,10.45
2023-05-24T04:37:04.925Z,10.47
2023-05-24T04:39:31.512Z,10.42
2023-05-24T04:41:58.100Z,10.42
2023-05-24T04:44:24.722Z,10.34
2023-05-24T04:46:51.288Z,10.30
2023-05-24T04:49:17.885Z,10.26
2023-05-24T04:51:44.510Z,10.27
2023-05-24T04:54:11.111Z,10.28
2023-05-24T04:56:38.507Z,10.28
2023-05-24T04:59:06.247Z,10.26
2023-05-24T05:01:32.860Z,10.28
2023-05-24T05:03:59.830Z,10.31
2023-05-24T05:06:26.435Z,10.38
2023-05-24T05:08:53.014Z,10.40
2023-05-24T05:11:19.592Z,10.44
2023-05-24T05:13:46.163Z,10.36
2023-05-24T05:16:12.908Z,10.34
2023-05-24T05:18:39.527Z,10.37
2023-05-24T05:21:06.176Z,10.43
2023-05-24T05:23:32.865Z,10.37
2023-05-24T05:25:59.443Z,10.39
2023-05-24T05:28:26.073Z,10.43
2023-05-24T05:30:52.704Z,10.45
2023-05-24T05:33:19.349Z,10.55
2023-05-24T05:35:46.001Z,10.57
2023-05-24T05:38:12.583Z,10.62
2023-05-24T05:40:39.146Z,10.59
2023-05-24T05:43:05.759Z,10.59
2023-05-24T05:45:32.329Z,10.62
2023-05-24T05:47:58.916Z,10.65
2023-05-24T05:50:25.774Z,10.67
2023-05-24T05:52:52.367Z,10.74
2023-05-24T05:55:19.008Z,10.80
2023-05-24T05:57:45.568Z,10.78
2023-05-24T06:00:12.681Z,10.71
2023-05-24T06:02:39.677Z,10.69
2023-05-24T06:05:06.519Z,10.76
2023-05-24T06:07:33.082Z,10.79
2023-05-24T06:09:59.716Z,10.78
2023-05-24T06:12:26.349Z,10.81
2023-05-24T06:14:52.899Z,10.87
2023-05-24T06:17:19.543Z,10.82
2023-05-24T06:19:46.193Z,10.80
2023-05-24T06:22:12.763Z,10.81
2023-05-24T06:24:39.380Z,10.77
2023-05-24T06:27:05.950Z,10.73
2023-05-24T06:29:32.609Z,10.80
2023-05-24T06:31:59.387Z,10.80
2023-05-24T06:34:26.055Z,10.80
2023-05-24T06:36:52.665Z,10.84
2023-05-24T06:39:19.287Z,10.84
2023-05-24T06:41:46.024Z,10.88
2023-05-24T06:44:12.661Z,10.90
2023-05-24T06:46:39.620Z,10.94
2023-05-24T06:49:06.386Z,10.94
2023-05-24T06:51:33.028Z,11.06
2023-05-24T06:53:59.784Z,11.15
2023-05-24T06:56:26.476Z,11.28
2023-05-24T06:58:53.144Z,11.37
2023-05-24T07:01:19.772Z,11.44
2023-05-24T07:03:46.395Z,11.52
2023-05-24T07:06:13.028Z,11.59
2023-05-24T07:08:40.859Z,11.60
2023-05-24T07:11:07.560Z,11.63
2023-05-24T07:13:34.260Z,11.51
2023-05-24T07:16:00.832Z,11.45
2023-05-24T07:18:27.435Z,11.38
2023-05-24T07:20:54.213Z,11.32
2023-05-24T07:23:20.919Z,11.37
2023-05-24T07:25:47.552Z,11.28
2023-05-24T07:28:14.249Z,11.24
2023-05-24T07:30:41.496Z,11.22
2023-05-24T07:33:08.128Z,11.26
2023-05-24T07:35:34.782Z,11.30
2023-05-24T07:38:01.351Z,11.32
2023-05-24T07:40:27.950Z,11.32
2023-05-24T07:42:54.551Z,11.40
2023-05-24T07:45:21.168Z,11.50
2023-05-24T07:47:47.766Z,11.60
2023-05-24T07:50:14.351Z,11.64
2023-05-24T07:52:41.008Z,11.74
2023-05-24T07:55:07.944Z,11.80
2023-05-24T07:57:34.592Z,11.86
2023-05-24T08:00:01.238Z,11.91
2023-05-24T08:02:27.937Z,11.91
2023-05-24T08:04:54.567Z,11.91
2023-05-24T08:07:21.239Z,11.98
2023-05-24T08:09:47.862Z,12.09
2023-05-24T08:12:16.966Z,12.12
2023-05-24T08:14:43.842Z,12.16
2023-05-24T08:17:10.443Z,12.28
2023-05-24T08:19:37.152Z,12.32
2023-05-24T08:22:03.869Z,12.35
2023-05-24T08:24:31.313Z,12.31
2023-05-24T08:26:58.000Z,12.31
2023-05-24T08:29:24.545Z,12.37
2023-05-24T08:31:51.294Z,12.40
2023-05-24T08:34:17.999Z,12.41
2023-05-24T08:36:44.575Z,12.31
2023-05-24T08:39:11.200Z,12.28
2023-05-24T08:41:37.816Z,12.24
2023-05-24T08:44:07.281Z,12.13
2023-05-24T08:46:37.161Z,12.05
2023-05-24T08:49:04.499Z,12.00
2023-05-24T08:51:31.719Z,12.09
2023-05-24T08:53:59.193Z,12.19
2023-05-24T08:56:26.289Z,12.22
2023-05-24T08:58:54.020Z,12.28
2023-05-24T09:01:20.815Z,12.41
2023-05-24T09:03:47.786Z,12.53
2023-05-24T09:06:17.163Z,12.67
2023-05-24T09:08:44.184Z,12.81
2023-05-24T09:11:11.025Z,12.93
2023-05-24T09:13:37.883Z,13.01
2023-05-24T09:16:06.016Z,13.20
2023-05-24T09:18:32.639Z,13.33
2023-05-24T09:20:59.278Z,13.45
2023-05-24T09:23:26.140Z,13.58
2023-05-24T09:25:52.788Z,13.75
2023-05-24T09:28:19.723Z,13.84
2023-05-24T09:30:57.328Z,13.82
2023-05-24T09:33:23.882Z,13.77
2023-05-24T09:35:50.499Z,13.67
2023-05-24T09:38:18.043Z,13.70
2023-05-24T09:40:44.825Z,13.67
2023-05-24T09:43:11.589Z,13.78
2023-05-24T09:45:47.444Z,13.76
2023-05-24T09:48:14.636Z,13.73
2023-05-24T09:50:41.471Z,13.75
2023-05-24T09:53:08.492Z,13.75
2023-05-24T09:55:38.262Z,13.83
2023-05-24T09:58:06.693Z,13.93
2023-05-24T10:00:38.205Z,14.04
2023-05-24T10:03:05.550Z,14.14
2023-05-24T10:05:32.170Z,14.17
2023-05-24T10:07:58.922Z,14.15
2023-05-24T10:10:28.069Z,14.12
2023-05-24T10:12:56.107Z,14.04
2023-05-24T10:15:23.076Z,13.91
2023-05-24T10:17:49.726Z,13.76
2023-05-24T10:20:16.605Z,13.64
2023-05-24T10:22:44.507Z,13.47
2023-05-24T10:25:12.984Z,13.44
2023-05-24T10:27:39.589Z,13.34
2023-05-24T10:30:16.428Z,13.30
2023-05-24T10:32:43.853Z,13.30
2023-05-24T10:35:10.490Z,13.37
2023-05-24T10:37:37.136Z,13.49
2023-05-24T10:40:05.124Z,13.66
2023-05-24T10:42:31.938Z,13.85
2023-05-24T10:44:58.579Z,14.02
2023-05-24T10:47:26.246Z,14.22
2023-05-24T10:49:56.141Z,14.31
2023-05-24T10:52:22.757Z,14.30
2023-05-24T10:55:08.832Z,14.31
2023-05-24T10:57:36.162Z,14.35
2023-05-24T11:00:33.734Z,14.77
2023-05-24T11:03:08.573Z,14.92
2023-05-24T11:05:55.555Z,14.82
2023-05-24T11:08:32.603Z,14.75
2023-05-24T11:11:24.725Z,14.69
2023-05-24T11:13:56.073Z,14.57
2023-05-24T11:16:36.704Z,14.59
2023-05-24T11:19:12.913Z,14.73
2023-05-24T11:21:40.751Z,14.86
2023-05-24T11:24:07.466Z,15.07
2023-05-24T11:26:34.179Z,15.38
2023-05-24T11:29:04.089Z,15.48
2023-05-24T11:31:31.936Z,15.47
2023-05-24T11:34:00.426Z,15.31
2023-05-24T11:36:27.037Z,15.19
2023-05-24T11:38:54.080Z,14.92
2023-05-24T11:41:20.651Z,14.74
2023-05-24T11:43:47.229Z,14.58
2023-05-24T11:46:13.794Z,14.49
2023-05-24T11:48:42.124Z,14.38
2023-05-24T11:51:08.869Z,14.32
2023-05-24T11:53:35.465Z,14.32
2023-05-24T11:56:02.096Z,14.31
2023-05-24T11:59:09.192Z,14.29
2023-05-24T12:01:35.847Z,14.28
2023-05-24T12:04:02.534Z,14.38
2023-05-24T12:06:36.180Z,14.43
2023-05-24T12:09:02.817Z,14.50
2023-05-24T12:11:29.356Z,14.53
2023-05-24T12:13:55.944Z,14.63
2023-05-24T12:16:22.626Z,14.72
2023-05-24T12:19:02.279Z,14.81
2023-05-24T12:21:30.830Z,14.90
2023-05-24T12:23:57.428Z,14.87
2023-05-24T12:26:24.117Z,14.84
2023-05-24T12:28:53.743Z,14.84
2023-05-24T12:31:20.454Z,14.85
2023-05-24T12:33:47.481Z,14.86
2023-05-24T12:36:14.170Z,14.84
2023-05-24T12:38:40.944Z,14.80
2023-05-24T12:41:13.708Z,14.82
2023-05-24T12:43:41.955Z,14.74
2023-05-24T12:46:08.507Z,14.68
2023-05-24T12:48:35.295Z,14.59
2023-05-24T12:51:01.868Z,14.52
2023-05-24T12:53:28.496Z,14.47
2023-05-24T12:55:55.116Z,14.47
2023-05-24T12:58:22.280Z,14.48
2023-05-24T13:00:48.952Z,14.55
2023-05-24T13:03:15.821Z,14.63
2023-05-24T13:05:42.549Z,14.70
2023-05-24T13:08:10.317Z,14.81
2023-05-24T13:10:36.937Z,14.98
2023-05-24T13:13:03.542Z,15.08
2023-05-24T13:15:30.137Z,15.17
2023-05-24T13:17:56.744Z,15.36
2023-05-24T13:20:23.391Z,15.56
2023-05-24T13:22:50.006Z,15.73
2023-05-24T13:25:16.562Z,16.02
2023-05-24T13:27:43.126Z,16.33
2023-05-24T13:30:10.120Z,16.49
2023-05-24T13:32:37.975Z,16.48
2023-05-24T13:35:08.330Z,16.36
2023-05-24T13:37:35.300Z,16.23
2023-05-24T13:40:01.950Z,16.18
2023-05-24T13:42:28.645Z,16.28
2023-05-24T13:44:55.484Z,16.47
2023-05-24T13:47:35.277Z,16.69
2023-05-24T13:50:06.069Z,16.79
2023-05-24T13:52:32.738Z,16.87
2023-05-24T13:54:59.351Z,16.93
2023-05-24T13:57:31.269Z,17.30
2023-05-24T14:00:06.780Z,18.39
2023-05-24T14:02:33.412Z,19.22
2023-05-24T14:05:13.878Z,18.71
2023-05-24T14:07:46.652Z,17.95
2023-05-24T14:10:13.305Z,17.45
2023-05-24T14:12:39.921Z,17.05
2023-05-24T14:15:07.139Z,16.82
2023-05-24T14:17:33.731Z,16.68
2023-05-24T14:20:00.398Z,16.51
2023-05-24T14:22:27.042Z,16.44
2023-05-24T14:24:53.678Z,16.40
2023-05-24T14:27:20.257Z,16.54
2023-05-24T14:29:46.896Z,16.78
2023-05-24T14:32:13.544Z,16.65
2023-05-24T14:34:40.232Z,16.61
2023-05-24T14:37:06.862Z,16.63
2023-05-24T14:39:33.498Z,17.35
2023-05-24T14:42:00.041Z,17.22
2023-05-24T14:44:26.668Z,18.37
2023-05-24T14:46:55.450Z,18.66
2023-05-24T14:49:22.315Z,18.21
2023-05-24T14:51:48.911Z,18.75
2023-05-24T14:54:15.485Z,18.13
2023-05-24T14:56:42.116Z,17.94
2023-05-24T14:59:08.736Z,18.04
2023-05-24T15:01:35.379Z,18.53
2023-05-24T15:04:02.054Z,19.78
2023-05-24T15:06:28.644Z,19.07
2023-05-24T15:08:55.243Z,18.44
2023-05-24T15:11:21.851Z,18.04
2023-05-24T15:13:48.407Z,18.31
2023-05-24T15:16:14.988Z,17.92
2023-05-24T15:18:41.578Z,18.38
2023-05-24T15:21:08.143Z,18.06
2023-05-24T15:23:43.911Z,17.64
2023-05-24T15:26:10.567Z,17.50
2023-05-24T15:28:37.224Z,17.27
2023-05-24T15:31:03.943Z,17.02
2023-05-24T15:33:30.797Z,16.93
2023-05-24T15:35:57.400Z,16.95
2023-05-24T15:38:24.036Z,16.78
2023-05-24T15:40:51.158Z,17.27
2023-05-24T15:43:18.380Z,17.46
2023-05-24T15:45:45.275Z,17.27
2023-05-24T15:48:11.957Z,17.28
2023-05-24T15:50:59.795Z,17.94
2023-05-24T15:53:25.630Z,18.53
2023-05-24T15:55:52.208Z,19.26
2023-05-24T15:58:18.783Z,17.83
2023-05-24T16:00:45.525Z,17.41
2023-05-24T16:03:12.189Z,18.12
2023-05-24T16:05:38.890Z,17.72
2023-05-24T16:08:05.497Z,17.36
2023-05-24T16:10:32.094Z,17.38
2023-05-24T16:12:58.829Z,17.13
2023-05-24T16:15:25.434Z,16.92
2023-05-24T16:17:52.422Z,16.75
2023-05-24T16:20:19.044Z,16.51
2023-05-24T16:22:48.464Z,16.35
2023-05-24T16:25:15.202Z,16.35
2023-05-24T16:27:41.778Z,16.36
2023-05-24T16:30:09.048Z,16.49
2023-05-24T16:32:36.123Z,16.65
2023-05-24T16:35:02.784Z,16.82
2023-05-24T16:37:29.390Z,17.21
2023-05-24T16:39:55.964Z,17.04
2023-05-24T16:42:22.582Z,16.68
2023-05-24T16:44:49.146Z,16.33
2023-05-24T16:47:15.688Z,15.98
2023-05-24T16:49:42.327Z,15.75
2023-05-24T16:52:08.891Z,15.60
2023-05-24T16:54:35.428Z,15.54
2023-05-24T16:57:02.015Z,15.53
2023-05-24T16:59:28.604Z,15.51
2023-05-24T17:01:55.226Z,15.58
2023-05-24T17:04:21.900Z,15.65
2023-05-24T17:06:48.501Z,15.62
2023-05-24T17:09:15.093Z,15.60
2023-05-24T17:11:41.662Z,15.53
2023-05-24T17:14:08.230Z,15.39
2023-05-24T17:16:35.224Z,15.27
2023-05-24T17:19:02.624Z,15.22
2023-05-24T17:21:29.290Z,15.15
2023-05-24T17:23:56.227Z,15.03
2023-05-24T17:26:23.399Z,14.94
2023-05-24T17:28:49.972Z,14.86
2023-05-24T17:31:16.683Z,14.81
2023-05-24T17:33:43.357Z,14.73
2023-05-24T17:36:09.887Z,14.70
2023-05-24T17:38:36.467Z,14.64
2023-05-24T17:41:03.578Z,14.53
2023-05-24T17:43:30.097Z,14.43
2023-05-24T17:46:00.937Z,14.47
2023-05-24T17:48:27.510Z,14.40
2023-05-24T17:50:54.272Z,14.40
2023-05-24T17:53:31.343Z,14.39
2023-05-24T17:55:58.892Z,14.38
2023-05-24T17:58:25.480Z,14.41
2023-05-24T18:00:52.202Z,14.37
2023-05-24T18:03:18.877Z,14.27
2023-05-24T18:05:45.533Z,14.22
2023-05-24T18:08:12.146Z,14.16
2023-05-24T18:10:38.725Z,14.05
2023-05-24T18:13:06.728Z,13.99
2023-05-24T18:15:33.703Z,13.87
2023-05-24T18:18:00.320Z,13.79
2023-05-24T18:20:26.995Z,13.70
2023-05-24T18:22:53.632Z,13.65
2023-05-24T18:25:20.740Z,13.69
2023-05-24T18:27:47.325Z,13.66
2023-05-24T18:30:14.236Z,13.59
2023-05-24T18:32:49.000Z,13.49
2023-05-24T18:35:22.851Z,13.43
2023-05-24T18:37:49.486Z,13.40
2023-05-24T18:40:16.039Z,13.41
2023-05-24T18:42:42.777Z,13.28
2023-05-24T18:45:09.707Z,13.15
2023-05-24T18:47:36.321Z,13.04
2023-05-24T18:50:02.939Z,12.94
2023-05-24T18:52:29.482Z,12.84
2023-05-24T18:54:56.087Z,12.80
2023-05-24T18:57:22.924Z,12.71
2023-05-24T18:59:49.624Z,12.67
2023-05-24T19:02:16.971Z,12.59
2023-05-24T19:04:43.621Z,12.52
2023-05-24T19:07:10.191Z,12.39
2023-05-24T19:09:36.801Z,12.35
2023-05-24T19:12:03.516Z,12.24
2023-05-24T19:14:30.404Z,12.32
2023-05-24T19:16:57.027Z,12.24
2023-05-24T19:19:23.667Z,12.20
2023-05-24T19:21:50.235Z,12.14
2023-05-24T19:24:16.857Z,12.17
2023-05-24T19:26:43.407Z,12.09
2023-05-24T19:29:09.986Z,12.05
2023-05-24T19:31:36.577Z,11.93
2023-05-24T19:34:03.227Z,11.92
2023-05-24T19:36:29.847Z,11.86
2023-05-24T19:38:56.399Z,11.77
2023-05-24T19:41:22.965Z,11.75
2023-05-24T19:43:49.731Z,11.69
2023-05-24T19:46:16.285Z,11.62
2023-05-24T19:48:42.900Z,11.66
2023-05-24T19:51:09.472Z,11.61
2023-05-24T19:53:36.069Z,11.64
2023-05-24T19:56:02.736Z,11.62
2023-05-24T19:58:29.476Z,11.54
2023-05-24T22:02:26.100Z,11.01
2023-05-24T22:04:52.706Z,11.09
2023-05-24T22:07:19.346Z,11.11
2023-05-24T22:09:45.975Z,11.11
2023-05-24T22:12:12.544Z,11.10
2023-05-24T22:14:39.110Z,11.08
2023-05-24T22:17:05.747Z,11.11
2023-05-24T22:19:39.535Z,11.14
2023-05-24T22:22:07.866Z,11.11
2023-05-24T22:24:34.454Z,11.08
2023-05-24T22:27:01.249Z,11.04
2023-05-24T22:29:28.098Z,11.09
2023-05-24T22:31:54.743Z,11.12
2023-05-24T22:34:28.159Z,11.17
2023-05-24T22:36:54.863Z,11.09
2023-05-24T22:39:21.523Z,11.05
2023-05-24T22:41:48.140Z,10.98
2023-05-24T22:44:14.804Z,10.98
2023-05-24T22:46:41.379Z,10.93
2023-05-24T22:49:07.985Z,10.96
2023-05-24T22:51:34.575Z,10.91
2023-05-24T22:54:01.140Z,10.87
2023-05-24T22:56:27.719Z,10.85
2023-05-24T22:58:54.319Z,10.79
2023-05-24T23:01:20.923Z,10.68
2023-05-24T23:03:47.477Z,10.62
2023-05-24T23:06:14.042Z,10.55
2023-05-24T23:08:40.622Z,10.49
2023-05-24T23:11:07.216Z,10.47
2023-05-24T23:13:33.795Z,10.49
2023-05-24T23:16:00.650Z,10.44
2023-05-24T23:18:27.325Z,10.42
2023-05-24T23:20:54.169Z,10.34
2023-05-24T23:23:20.886Z,10.30
2023-05-24T23:25:48.839Z,10.27
2023-05-24T23:28:15.470Z,10.24
2023-05-24T23:30:42.042Z,10.24
2023-05-24T23:33:08.699Z,10.26
2023-05-24T23:35:35.317Z,10.24
2023-05-24T23:38:01.860Z,10.21
2023-05-24T23:40:28.419Z,10.27
2023-05-24T23:42:55.013Z,10.23
2023-05-24T23:45:21.556Z,10.20
2023-05-24T23:47:48.199Z,10.15
2023-05-24T23:50:14.808Z,10.05
2023-05-24T23:52:41.385Z,10.04
2023-05-24T23:55:08.254Z,9.99
2023-05-24T23:57:34.798Z,9.95
